NJE702K LEPA-EDDM
Flight info
| Callsign | NJE702K |
|---|---|
| Flight time | 1h 32m |
| Altitude | 38000 |
| Route | MEROS DCT LAPIT DCT CHELY DCT LUMAS DCT UNANA DCT STP DCT RAPED DCT PIGOS DCT EKSID DCT NOSTA DCT NOPMU DCT VAKON DCT TAGIP DCT GUNGO DCT TISAX DCT IVKAL T102 NINUR T101 BETOS |
| Aircraft | C750/M-SBDE3FGHRWXY/S |
Departure
| Time | 2026-05-05 01:40 |
|---|---|
| Airport | Palma de Mallorca Airport (LEPA) |
Arrival
| Time | 2026-05-05 03:12 |
|---|---|
| Airport | Munich Airport (EDDM) |
| Time | Latitude | Longitude | Altitude | Speed | Heading |
|---|---|---|---|---|---|
| 2026-05-05 01:21 | 39.54138 | 2.72332 | 35 ft | 0 kts | 329° |
| 2026-05-05 01:28 | 39.54123 | 2.72344 | 35 ft | 4 kts | 329° |
| 2026-05-05 01:29 | 39.54099 | 2.72360 | 35 ft | 4 kts | 335° |
| 2026-05-05 01:29 | 39.54079 | 2.72371 | 35 ft | 1 kts | 339° |
| 2026-05-05 01:29 | 39.54075 | 2.72373 | 35 ft | 0 kts | 339° |
| 2026-05-05 01:31 | 39.54076 | 2.72373 | 35 ft | 1 kts | 339° |
| 2026-05-05 01:31 | 39.54090 | 2.72366 | 35 ft | 2 kts | 339° |
| 2026-05-05 01:31 | 39.54109 | 2.72366 | 35 ft | 3 kts | 33° |
| 2026-05-05 01:32 | 39.54126 | 2.72400 | 35 ft | 6 kts | 59° |
| 2026-05-05 01:32 | 39.54150 | 2.72453 | 35 ft | 7 kts | 58° |
| 2026-05-05 01:32 | 39.54173 | 2.72499 | 35 ft | 6 kts | 58° |
| 2026-05-05 01:32 | 39.54197 | 2.72555 | 35 ft | 7 kts | 81° |
| 2026-05-05 01:33 | 39.54188 | 2.72610 | 35 ft | 6 kts | 66° |
| 2026-05-05 01:33 | 39.54222 | 2.72680 | 35 ft | 12 kts | 58° |
| 2026-05-05 01:33 | 39.54268 | 2.72780 | 35 ft | 10 kts | 63° |
| 2026-05-05 01:33 | 39.54237 | 2.72847 | 35 ft | 11 kts | 151° |
| 2026-05-05 01:34 | 39.54225 | 2.72935 | 35 ft | 13 kts | 60° |
| 2026-05-05 01:34 | 39.54281 | 2.73050 | 35 ft | 17 kts | 59° |
| 2026-05-05 01:34 | 39.54352 | 2.73201 | 35 ft | 21 kts | 58° |
| 2026-05-05 01:34 | 39.54426 | 2.73359 | 35 ft | 20 kts | 58° |
| 2026-05-05 01:35 | 39.54496 | 2.73507 | 35 ft | 19 kts | 58° |
| 2026-05-05 01:35 | 39.54562 | 2.73644 | 35 ft | 17 kts | 58° |
| 2026-05-05 01:35 | 39.54624 | 2.73775 | 35 ft | 17 kts | 59° |
| 2026-05-05 01:35 | 39.54685 | 2.73904 | 35 ft | 16 kts | 58° |
| 2026-05-05 01:36 | 39.54742 | 2.74024 | 35 ft | 15 kts | 58° |
| 2026-05-05 01:36 | 39.54803 | 2.74124 | 35 ft | 13 kts | 18° |
| 2026-05-05 01:36 | 39.54893 | 2.74073 | 35 ft | 17 kts | 329° |
| 2026-05-05 01:36 | 39.55003 | 2.73987 | 35 ft | 21 kts | 328° |
| 2026-05-05 01:37 | 39.55136 | 2.73882 | 35 ft | 22 kts | 329° |
| 2026-05-05 01:37 | 39.55264 | 2.73781 | 35 ft | 21 kts | 328° |
| 2026-05-05 01:37 | 39.55390 | 2.73682 | 35 ft | 21 kts | 329° |
| 2026-05-05 01:37 | 39.55511 | 2.73586 | 35 ft | 20 kts | 329° |
| 2026-05-05 01:38 | 39.55616 | 2.73506 | 35 ft | 16 kts | 341° |
| 2026-05-05 01:38 | 39.55694 | 2.73583 | 35 ft | 17 kts | 59° |
| 2026-05-05 01:38 | 39.55761 | 2.73724 | 35 ft | 18 kts | 58° |
| 2026-05-05 01:38 | 39.55823 | 2.73857 | 35 ft | 16 kts | 58° |
| 2026-05-05 01:39 | 39.55889 | 2.73896 | 35 ft | 10 kts | 327° |
| 2026-05-05 01:39 | 39.55946 | 2.73850 | 35 ft | 9 kts | 330° |
| 2026-05-05 01:39 | 39.55996 | 2.73811 | 35 ft | 7 kts | 313° |
| 2026-05-05 01:39 | 39.55991 | 2.73764 | 35 ft | 2 kts | 238° |
| 2026-05-05 01:40 | 39.55987 | 2.73755 | 35 ft | 7 kts | 238° |
| 2026-05-05 01:40 | 39.55788 | 2.73337 | 35 ft | 110 kts | 239° |
| 2026-05-05 01:40 | 39.55285 | 2.72282 | 253 ft | 151 kts | 237° |
| 2026-05-05 01:40 | 39.54688 | 2.71050 | 793 ft | 172 kts | 236° |
| 2026-05-05 01:41 | 39.54022 | 2.69673 | 1542 ft | 188 kts | 236° |
| 2026-05-05 01:41 | 39.53271 | 2.68193 | 2311 ft | 200 kts | 235° |
| 2026-05-05 01:41 | 39.52501 | 2.66708 | 3371 ft | 201 kts | 235° |
| 2026-05-05 01:41 | 39.51714 | 2.65161 | 4246 ft | 208 kts | 236° |
| 2026-05-05 01:42 | 39.50916 | 2.63583 | 5218 ft | 212 kts | 236° |
| 2026-05-05 01:42 | 39.50099 | 2.61977 | 6147 ft | 215 kts | 235° |
| 2026-05-05 01:42 | 39.48968 | 2.60603 | 6593 ft | 240 kts | 211° |
| 2026-05-05 01:42 | 39.47404 | 2.59544 | 7045 ft | 264 kts | 208° |
| 2026-05-05 01:43 | 39.45799 | 2.58411 | 8144 ft | 261 kts | 211° |
| 2026-05-05 01:43 | 39.44220 | 2.57259 | 9268 ft | 261 kts | 211° |
| 2026-05-05 01:43 | 39.42492 | 2.56451 | 10093 ft | 272 kts | 192° |
| 2026-05-05 01:43 | 39.40520 | 2.56559 | 10421 ft | 304 kts | 171° |
| 2026-05-05 01:44 | 39.38524 | 2.57892 | 10420 ft | 346 kts | 145° |
| 2026-05-05 01:44 | 39.36816 | 2.60205 | 10943 ft | 359 kts | 135° |
| 2026-05-05 01:44 | 39.35218 | 2.62696 | 11667 ft | 363 kts | 134° |
| 2026-05-05 01:44 | 39.33551 | 2.65173 | 12297 ft | 367 kts | 136° |
| 2026-05-05 01:45 | 39.31813 | 2.67619 | 12916 ft | 372 kts | 137° |
| 2026-05-05 01:45 | 39.30053 | 2.70136 | 13442 ft | 382 kts | 136° |
| 2026-05-05 01:45 | 39.28403 | 2.72858 | 13973 ft | 394 kts | 125° |
| 2026-05-05 01:45 | 39.27370 | 2.76116 | 14570 ft | 403 kts | 109° |
| 2026-05-05 01:46 | 39.27050 | 2.79739 | 15138 ft | 412 kts | 90° |
| 2026-05-05 01:46 | 39.27552 | 2.83398 | 15720 ft | 418 kts | 72° |
| 2026-05-05 01:46 | 39.28862 | 2.86746 | 16315 ft | 420 kts | 53° |
| 2026-05-05 01:46 | 39.30824 | 2.89521 | 16920 ft | 420 kts | 41° |
| 2026-05-05 01:47 | 39.32968 | 2.92103 | 17579 ft | 424 kts | 39° |
| 2026-05-05 01:47 | 39.35152 | 2.94690 | 18223 ft | 428 kts | 39° |
| 2026-05-05 01:47 | 39.37344 | 2.97330 | 18796 ft | 433 kts | 40° |
| 2026-05-05 01:47 | 39.39544 | 3.00013 | 19353 ft | 438 kts | 40° |
| 2026-05-05 01:48 | 39.41051 | 3.01842 | 19747 ft | 441 kts | 40° |
| 2026-05-05 01:48 | 39.43304 | 3.04557 | 20343 ft | 445 kts | 40° |
| 2026-05-05 01:48 | 39.45585 | 3.07307 | 20880 ft | 452 kts | 40° |
| 2026-05-05 01:48 | 39.47890 | 3.10105 | 21467 ft | 456 kts | 40° |
| 2026-05-05 01:49 | 39.50217 | 3.12938 | 22039 ft | 462 kts | 40° |
| 2026-05-05 01:49 | 39.52537 | 3.15754 | 22596 ft | 467 kts | 40° |
| 2026-05-05 01:49 | 39.54952 | 3.18685 | 23190 ft | 472 kts | 40° |
| 2026-05-05 01:49 | 39.57357 | 3.21613 | 23718 ft | 477 kts | 40° |
| 2026-05-05 01:50 | 39.59777 | 3.24564 | 24226 ft | 480 kts | 40° |
| 2026-05-05 01:50 | 39.62214 | 3.27537 | 24734 ft | 483 kts | 40° |
| 2026-05-05 01:50 | 39.64637 | 3.30493 | 25234 ft | 486 kts | 40° |
| 2026-05-05 01:50 | 39.67140 | 3.33549 | 25744 ft | 489 kts | 40° |
| 2026-05-05 01:51 | 39.69623 | 3.36588 | 26237 ft | 492 kts | 40° |
| 2026-05-05 01:51 | 39.72091 | 3.39611 | 26727 ft | 496 kts | 40° |
| 2026-05-05 01:51 | 39.74605 | 3.42692 | 27219 ft | 499 kts | 40° |
| 2026-05-05 01:51 | 39.77133 | 3.45793 | 27773 ft | 501 kts | 40° |
| 2026-05-05 01:52 | 39.79675 | 3.48917 | 28274 ft | 504 kts | 40° |
| 2026-05-05 01:52 | 39.82230 | 3.52058 | 28755 ft | 508 kts | 40° |
| 2026-05-05 01:52 | 39.84805 | 3.55228 | 29234 ft | 511 kts | 40° |
| 2026-05-05 01:52 | 39.87392 | 3.58416 | 29702 ft | 514 kts | 40° |
| 2026-05-05 01:53 | 39.89999 | 3.61632 | 30140 ft | 518 kts | 40° |
| 2026-05-05 01:53 | 39.92618 | 3.64867 | 30531 ft | 521 kts | 40° |
| 2026-05-05 01:53 | 39.95254 | 3.68127 | 30915 ft | 524 kts | 40° |
| 2026-05-05 01:53 | 39.97891 | 3.71391 | 31523 ft | 522 kts | 40° |
| 2026-05-05 01:54 | 40.00516 | 3.74647 | 32112 ft | 520 kts | 39° |
| 2026-05-05 01:54 | 40.03136 | 3.77896 | 32673 ft | 519 kts | 39° |
| 2026-05-05 01:54 | 40.05754 | 3.81145 | 33251 ft | 518 kts | 39° |
| 2026-05-05 01:54 | 40.08324 | 3.84342 | 33832 ft | 517 kts | 39° |
| 2026-05-05 01:55 | 40.10928 | 3.87584 | 34348 ft | 517 kts | 39° |
| 2026-05-05 01:55 | 40.13527 | 3.90822 | 34848 ft | 516 kts | 39° |
| 2026-05-05 01:55 | 40.16121 | 3.94057 | 35349 ft | 515 kts | 39° |
| 2026-05-05 01:55 | 40.18713 | 3.97295 | 35887 ft | 515 kts | 39° |
| 2026-05-05 01:56 | 40.21300 | 4.00529 | 36409 ft | 514 kts | 39° |
| 2026-05-05 01:56 | 40.23880 | 4.03759 | 36920 ft | 513 kts | 39° |
| 2026-05-05 01:56 | 40.26457 | 4.06989 | 37437 ft | 513 kts | 39° |
| 2026-05-05 01:56 | 40.29030 | 4.10216 | 37939 ft | 512 kts | 39° |
| 2026-05-05 01:57 | 40.34276 | 4.16799 | 37958 ft | 533 kts | 40° |
| 2026-05-05 01:57 | 40.39713 | 4.23653 | 37974 ft | 550 kts | 40° |
| 2026-05-05 01:58 | 40.45318 | 4.30684 | 37971 ft | 562 kts | 38° |
| 2026-05-05 01:58 | 40.51759 | 4.36394 | 37956 ft | 556 kts | 21° |
| 2026-05-05 01:59 | 40.58995 | 4.39535 | 37951 ft | 542 kts | 4° |
| 2026-05-05 01:59 | 40.66423 | 4.40755 | 37972 ft | 537 kts | 359° |
| 2026-05-05 02:00 | 40.73854 | 4.42158 | 37963 ft | 544 kts | 5° |
| 2026-05-05 02:00 | 40.81255 | 4.44287 | 37962 ft | 542 kts | 4° |
| 2026-05-05 02:01 | 40.88691 | 4.45840 | 37966 ft | 543 kts | 4° |
| 2026-05-05 02:01 | 40.96057 | 4.47780 | 37960 ft | 543 kts | 5° |
| 2026-05-05 02:02 | 41.03493 | 4.49489 | 37958 ft | 542 kts | 3° |
| 2026-05-05 02:02 | 41.10921 | 4.51350 | 37956 ft | 544 kts | 5° |
| 2026-05-05 02:03 | 41.18360 | 4.53137 | 37956 ft | 543 kts | 4° |
| 2026-05-05 02:03 | 41.25794 | 4.54960 | 37960 ft | 544 kts | 5° |
| 2026-05-05 02:04 | 41.33246 | 4.56785 | 37955 ft | 544 kts | 5° |
| 2026-05-05 02:04 | 41.40697 | 4.58608 | 37946 ft | 544 kts | 5° |
| 2026-05-05 02:05 | 41.48141 | 4.60445 | 37961 ft | 545 kts | 5° |
| 2026-05-05 02:05 | 41.55606 | 4.62279 | 37945 ft | 545 kts | 5° |
| 2026-05-05 02:06 | 41.63073 | 4.64129 | 37942 ft | 545 kts | 5° |
| 2026-05-05 02:06 | 41.70469 | 4.66560 | 37934 ft | 554 kts | 16° |
| 2026-05-05 02:07 | 41.77272 | 4.71531 | 37928 ft | 563 kts | 33° |
| 2026-05-05 02:07 | 41.82985 | 4.78681 | 37937 ft | 568 kts | 46° |
| 2026-05-05 02:08 | 41.88230 | 4.86603 | 37944 ft | 568 kts | 45° |
| 2026-05-05 02:08 | 41.93929 | 4.93868 | 37935 ft | 564 kts | 40° |
| 2026-05-05 02:09 | 41.99491 | 5.01283 | 37929 ft | 564 kts | 45° |
| 2026-05-05 02:09 | 42.05039 | 5.08739 | 37928 ft | 563 kts | 41° |
| 2026-05-05 02:10 | 42.10630 | 5.16123 | 37928 ft | 561 kts | 44° |
| 2026-05-05 02:10 | 42.16138 | 5.23606 | 37927 ft | 562 kts | 43° |
| 2026-05-05 02:11 | 42.21709 | 5.31002 | 37930 ft | 562 kts | 44° |
| 2026-05-05 02:11 | 42.27211 | 5.38493 | 37918 ft | 561 kts | 43° |
| 2026-05-05 02:12 | 42.35498 | 5.49662 | 37923 ft | 561 kts | 44° |
| 2026-05-05 02:13 | 42.41010 | 5.57141 | 37917 ft | 561 kts | 44° |
| 2026-05-05 02:13 | 42.46520 | 5.64626 | 37917 ft | 561 kts | 44° |
| 2026-05-05 02:14 | 42.52005 | 5.72116 | 37900 ft | 558 kts | 44° |
| 2026-05-05 02:14 | 42.57469 | 5.79575 | 37914 ft | 558 kts | 44° |
| 2026-05-05 02:15 | 42.62928 | 5.87066 | 37911 ft | 558 kts | 44° |
| 2026-05-05 02:15 | 42.68384 | 5.94561 | 37914 ft | 558 kts | 44° |
| 2026-05-05 02:16 | 42.73832 | 6.02072 | 37917 ft | 558 kts | 44° |
| 2026-05-05 02:16 | 42.79281 | 6.09599 | 37903 ft | 557 kts | 44° |
| 2026-05-05 02:17 | 42.84705 | 6.17109 | 37926 ft | 556 kts | 44° |
| 2026-05-05 02:17 | 42.90505 | 6.23953 | 37937 ft | 555 kts | 38° |
| 2026-05-05 02:18 | 42.96458 | 6.30696 | 37943 ft | 557 kts | 39° |
| 2026-05-05 02:18 | 43.02353 | 6.37554 | 37946 ft | 556 kts | 38° |
| 2026-05-05 02:19 | 43.08297 | 6.44340 | 37936 ft | 556 kts | 39° |
| 2026-05-05 02:19 | 43.14198 | 6.51216 | 37934 ft | 557 kts | 39° |
| 2026-05-05 02:20 | 43.20127 | 6.58059 | 37935 ft | 557 kts | 40° |
| 2026-05-05 02:20 | 43.25248 | 6.66021 | 37951 ft | 559 kts | 54° |
| 2026-05-05 02:21 | 43.29598 | 6.74856 | 37956 ft | 559 kts | 55° |
| 2026-05-05 02:21 | 43.34281 | 6.83385 | 37964 ft | 559 kts | 53° |
| 2026-05-05 02:22 | 43.38758 | 6.92122 | 37959 ft | 559 kts | 55° |
| 2026-05-05 02:22 | 43.43345 | 7.00759 | 37965 ft | 559 kts | 53° |
| 2026-05-05 02:23 | 43.47862 | 7.09457 | 37969 ft | 559 kts | 55° |
| 2026-05-05 02:23 | 43.52401 | 7.18159 | 37967 ft | 559 kts | 54° |
| 2026-05-05 02:24 | 43.56926 | 7.26862 | 37964 ft | 559 kts | 55° |
| 2026-05-05 02:24 | 43.61441 | 7.35603 | 37968 ft | 560 kts | 55° |
| 2026-05-05 02:25 | 43.65966 | 7.44342 | 37969 ft | 560 kts | 55° |
| 2026-05-05 02:25 | 43.70470 | 7.53117 | 37967 ft | 560 kts | 55° |
| 2026-05-05 02:26 | 43.74986 | 7.61898 | 37961 ft | 561 kts | 55° |
| 2026-05-05 02:26 | 43.79465 | 7.70668 | 37967 ft | 562 kts | 55° |
| 2026-05-05 02:27 | 43.84651 | 7.78729 | 37952 ft | 561 kts | 40° |
| 2026-05-05 02:27 | 43.90894 | 7.85209 | 37985 ft | 561 kts | 33° |
| 2026-05-05 02:28 | 43.97025 | 7.91857 | 37976 ft | 560 kts | 43° |
| 2026-05-05 02:28 | 44.02476 | 7.99593 | 37983 ft | 559 kts | 45° |
| 2026-05-05 02:29 | 44.08178 | 8.06956 | 37996 ft | 559 kts | 41° |
| 2026-05-05 02:29 | 44.13756 | 8.14514 | 38007 ft | 560 kts | 44° |
| 2026-05-05 02:30 | 44.19366 | 8.21994 | 37991 ft | 558 kts | 42° |
| 2026-05-05 02:30 | 44.24963 | 8.29499 | 38000 ft | 559 kts | 44° |
| 2026-05-05 02:31 | 44.30544 | 8.37050 | 37988 ft | 556 kts | 42° |
| 2026-05-05 02:31 | 44.36104 | 8.44515 | 37998 ft | 555 kts | 43° |
| 2026-05-05 02:32 | 44.41634 | 8.52048 | 37998 ft | 555 kts | 43° |
| 2026-05-05 02:32 | 44.47190 | 8.59554 | 37999 ft | 555 kts | 43° |
| 2026-05-05 02:33 | 44.52718 | 8.67113 | 38001 ft | 555 kts | 43° |
| 2026-05-05 02:33 | 44.58251 | 8.74646 | 37990 ft | 550 kts | 43° |
| 2026-05-05 02:34 | 44.63722 | 8.82154 | 37987 ft | 551 kts | 43° |
| 2026-05-05 02:34 | 44.69158 | 8.89610 | 37997 ft | 548 kts | 43° |
| 2026-05-05 02:35 | 44.74612 | 8.97125 | 38007 ft | 550 kts | 43° |
| 2026-05-05 02:35 | 44.80071 | 9.04660 | 38006 ft | 550 kts | 43° |
| 2026-05-05 02:36 | 44.85513 | 9.12197 | 38006 ft | 548 kts | 44° |
| 2026-05-05 02:36 | 44.90940 | 9.19734 | 38000 ft | 544 kts | 44° |
| 2026-05-05 02:37 | 44.96326 | 9.27233 | 37991 ft | 545 kts | 44° |
| 2026-05-05 02:37 | 45.01717 | 9.34761 | 37996 ft | 542 kts | 44° |
| 2026-05-05 02:38 | 45.07078 | 9.42269 | 37997 ft | 542 kts | 44° |
| 2026-05-05 02:38 | 45.11530 | 9.48519 | 37998 ft | 543 kts | 44° |
| 2026-05-05 02:39 | 45.16888 | 9.56061 | 37990 ft | 543 kts | 44° |
| 2026-05-05 02:39 | 45.22211 | 9.63574 | 38002 ft | 540 kts | 44° |
| 2026-05-05 02:40 | 45.28417 | 9.72360 | 38006 ft | 538 kts | 44° |
| 2026-05-05 02:40 | 45.32816 | 9.78605 | 38012 ft | 538 kts | 44° |
| 2026-05-05 02:41 | 45.38108 | 9.86139 | 37994 ft | 538 kts | 44° |
| 2026-05-05 02:41 | 45.43398 | 9.93688 | 37996 ft | 539 kts | 44° |
| 2026-05-05 02:42 | 45.48660 | 10.01279 | 37997 ft | 539 kts | 46° |
| 2026-05-05 02:42 | 45.53824 | 10.09020 | 38005 ft | 539 kts | 45° |
| 2026-05-05 02:43 | 45.58997 | 10.16775 | 38010 ft | 539 kts | 46° |
| 2026-05-05 02:43 | 45.64147 | 10.24557 | 38002 ft | 539 kts | 46° |
| 2026-05-05 02:44 | 45.69304 | 10.32331 | 38015 ft | 538 kts | 46° |
| 2026-05-05 02:44 | 45.74442 | 10.40134 | 38039 ft | 539 kts | 46° |
| 2026-05-05 02:45 | 45.79583 | 10.47936 | 38058 ft | 539 kts | 46° |
| 2026-05-05 02:45 | 45.84717 | 10.55771 | 38064 ft | 539 kts | 46° |
| 2026-05-05 02:46 | 45.89856 | 10.63620 | 38072 ft | 540 kts | 46° |
| 2026-05-05 02:46 | 45.95454 | 10.70761 | 38071 ft | 539 kts | 33° |
| 2026-05-05 02:47 | 46.02031 | 10.75870 | 38087 ft | 536 kts | 24° |
| 2026-05-05 02:47 | 46.08721 | 10.80619 | 38097 ft | 533 kts | 27° |
| 2026-05-05 02:48 | 46.15186 | 10.85919 | 38113 ft | 535 kts | 26° |
| 2026-05-05 02:48 | 46.21815 | 10.90821 | 38122 ft | 536 kts | 26° |
| 2026-05-05 02:49 | 46.28336 | 10.96037 | 38124 ft | 536 kts | 27° |
| 2026-05-05 02:49 | 46.34882 | 11.01029 | 38130 ft | 535 kts | 26° |
| 2026-05-05 02:50 | 46.41685 | 11.05502 | 38083 ft | 533 kts | 15° |
| 2026-05-05 02:50 | 46.48950 | 11.07128 | 38098 ft | 527 kts | 359° |
| 2026-05-05 02:51 | 46.56203 | 11.06638 | 38118 ft | 525 kts | 353° |
| 2026-05-05 02:51 | 46.63516 | 11.06312 | 38102 ft | 527 kts | 358° |
| 2026-05-05 02:52 | 46.70800 | 11.05458 | 38091 ft | 524 kts | 349° |
| 2026-05-05 02:52 | 46.78019 | 11.03915 | 38099 ft | 525 kts | 350° |
| 2026-05-05 02:53 | 46.85292 | 11.02686 | 38081 ft | 523 kts | 349° |
| 2026-05-05 02:53 | 46.92522 | 11.01222 | 38028 ft | 527 kts | 350° |
| 2026-05-05 02:54 | 46.99895 | 11.01492 | 38042 ft | 534 kts | 4° |
| 2026-05-05 02:54 | 47.07263 | 11.02932 | 38033 ft | 531 kts | 3° |
| 2026-05-05 02:54 | 47.10913 | 11.03373 | 38000 ft | 513 kts | 1° |
| 2026-05-05 02:55 | 47.14398 | 11.03798 | 37106 ft | 497 kts | 2° |
| 2026-05-05 02:55 | 47.17844 | 11.04367 | 35655 ft | 505 kts | 4° |
| 2026-05-05 02:55 | 47.21342 | 11.04986 | 34417 ft | 506 kts | 4° |
| 2026-05-05 02:55 | 47.24831 | 11.05504 | 33355 ft | 501 kts | 2° |
| 2026-05-05 02:56 | 47.28295 | 11.05974 | 32425 ft | 500 kts | 3° |
| 2026-05-05 02:56 | 47.31767 | 11.06502 | 31588 ft | 504 kts | 4° |
| 2026-05-05 02:56 | 47.35259 | 11.07077 | 30760 ft | 505 kts | 4° |
| 2026-05-05 02:56 | 47.38757 | 11.07623 | 29961 ft | 507 kts | 3° |
| 2026-05-05 02:57 | 47.42298 | 11.08141 | 29048 ft | 519 kts | 3° |
| 2026-05-05 02:57 | 47.45870 | 11.08677 | 28172 ft | 527 kts | 4° |
| 2026-05-05 02:57 | 47.49516 | 11.09259 | 27317 ft | 520 kts | 4° |
| 2026-05-05 02:57 | 47.53038 | 11.09821 | 26462 ft | 500 kts | 4° |
| 2026-05-05 02:58 | 47.56408 | 11.10723 | 25569 ft | 492 kts | 15° |
| 2026-05-05 02:58 | 47.59543 | 11.12839 | 24726 ft | 499 kts | 28° |
| 2026-05-05 02:58 | 47.62563 | 11.15424 | 24014 ft | 503 kts | 30° |
| 2026-05-05 02:58 | 47.65531 | 11.18068 | 23334 ft | 493 kts | 30° |
| 2026-05-05 02:59 | 47.68499 | 11.20671 | 22667 ft | 495 kts | 29° |
| 2026-05-05 02:59 | 47.71480 | 11.23217 | 22138 ft | 496 kts | 29° |
| 2026-05-05 02:59 | 47.74530 | 11.25589 | 21591 ft | 491 kts | 22° |
| 2026-05-05 02:59 | 47.77573 | 11.27596 | 21018 ft | 479 kts | 29° |
| 2026-05-05 03:00 | 47.80102 | 11.30774 | 20485 ft | 479 kts | 50° |
| 2026-05-05 03:00 | 47.81981 | 11.34859 | 20217 ft | 479 kts | 58° |
| 2026-05-05 03:00 | 47.83706 | 11.38971 | 20014 ft | 449 kts | 58° |
| 2026-05-05 03:00 | 47.85472 | 11.42783 | 19943 ft | 450 kts | 54° |
| 2026-05-05 03:01 | 47.87334 | 11.46557 | 19936 ft | 454 kts | 54° |
| 2026-05-05 03:01 | 47.89132 | 11.50409 | 19938 ft | 451 kts | 56° |
| 2026-05-05 03:01 | 47.90870 | 11.54323 | 19933 ft | 452 kts | 57° |
| 2026-05-05 03:01 | 47.92643 | 11.58204 | 19935 ft | 453 kts | 55° |
| 2026-05-05 03:02 | 47.94459 | 11.62057 | 19654 ft | 453 kts | 55° |
| 2026-05-05 03:02 | 47.96243 | 11.65894 | 19171 ft | 449 kts | 56° |
| 2026-05-05 03:02 | 47.97984 | 11.69733 | 18689 ft | 445 kts | 56° |
| 2026-05-05 03:02 | 47.99717 | 11.73539 | 18218 ft | 441 kts | 56° |
| 2026-05-05 03:03 | 48.01451 | 11.77298 | 17684 ft | 438 kts | 56° |
| 2026-05-05 03:03 | 48.03169 | 11.81030 | 17152 ft | 435 kts | 56° |
| 2026-05-05 03:03 | 48.04863 | 11.84748 | 16631 ft | 433 kts | 56° |
| 2026-05-05 03:03 | 48.06551 | 11.88460 | 16025 ft | 429 kts | 56° |
| 2026-05-05 03:04 | 48.08228 | 11.92130 | 15392 ft | 425 kts | 56° |
| 2026-05-05 03:04 | 48.09894 | 11.95755 | 14545 ft | 420 kts | 56° |
| 2026-05-05 03:04 | 48.11531 | 11.99300 | 13585 ft | 405 kts | 56° |
| 2026-05-05 03:04 | 48.13099 | 12.02675 | 12525 ft | 386 kts | 56° |
| 2026-05-05 03:05 | 48.14599 | 12.05899 | 11504 ft | 369 kts | 55° |
| 2026-05-05 03:05 | 48.16447 | 12.08459 | 10419 ft | 360 kts | 32° |
| 2026-05-05 03:05 | 48.18529 | 12.09959 | 9675 ft | 314 kts | 22° |
| 2026-05-05 03:05 | 48.20579 | 12.11131 | 8896 ft | 313 kts | 20° |
| 2026-05-05 03:06 | 48.22582 | 12.12168 | 8120 ft | 300 kts | 14° |
| 2026-05-05 03:06 | 48.24639 | 12.12491 | 7569 ft | 293 kts | 1° |
| 2026-05-05 03:06 | 48.26655 | 12.12526 | 7061 ft | 286 kts | 359° |
| 2026-05-05 03:06 | 48.28624 | 12.12533 | 6604 ft | 278 kts | 359° |
| 2026-05-05 03:07 | 48.30493 | 12.12199 | 6202 ft | 266 kts | 346° |
| 2026-05-05 03:07 | 48.32250 | 12.11489 | 5901 ft | 255 kts | 342° |
| 2026-05-05 03:07 | 48.33919 | 12.10772 | 5634 ft | 245 kts | 343° |
| 2026-05-05 03:07 | 48.35522 | 12.10051 | 5330 ft | 237 kts | 342° |
| 2026-05-05 03:08 | 48.36857 | 12.08743 | 4965 ft | 229 kts | 309° |
| 2026-05-05 03:08 | 48.37705 | 12.06790 | 4701 ft | 222 kts | 299° |
| 2026-05-05 03:08 | 48.38481 | 12.04789 | 4370 ft | 218 kts | 297° |
| 2026-05-05 03:08 | 48.38677 | 12.02664 | 4104 ft | 208 kts | 255° |
| 2026-05-05 03:09 | 48.38177 | 12.00713 | 3904 ft | 196 kts | 251° |
| 2026-05-05 03:09 | 48.37958 | 11.98717 | 3661 ft | 191 kts | 263° |
| 2026-05-05 03:09 | 48.37810 | 11.96727 | 3420 ft | 195 kts | 263° |
| 2026-05-05 03:09 | 48.37662 | 11.94773 | 3157 ft | 175 kts | 263° |
| 2026-05-05 03:10 | 48.37530 | 11.93109 | 2935 ft | 147 kts | 263° |
| 2026-05-05 03:10 | 48.37421 | 11.91685 | 2750 ft | 130 kts | 264° |
| 2026-05-05 03:10 | 48.37321 | 11.90378 | 2574 ft | 124 kts | 263° |
| 2026-05-05 03:10 | 48.37223 | 11.89085 | 2423 ft | 125 kts | 264° |
| 2026-05-05 03:11 | 48.37125 | 11.87800 | 2259 ft | 122 kts | 263° |
| 2026-05-05 03:11 | 48.37031 | 11.86530 | 2092 ft | 123 kts | 263° |
| 2026-05-05 03:11 | 48.36929 | 11.85254 | 1916 ft | 124 kts | 262° |
| 2026-05-05 03:11 | 48.36828 | 11.83958 | 1747 ft | 125 kts | 263° |
| 2026-05-05 03:12 | 48.36730 | 11.82658 | 1579 ft | 126 kts | 263° |
| 2026-05-05 03:12 | 48.36631 | 11.81381 | 1486 ft | 114 kts | 263° |
| 2026-05-05 03:12 | 48.36553 | 11.80376 | 1482 ft | 71 kts | 263° |
| 2026-05-05 03:12 | 48.36500 | 11.79854 | 1480 ft | 40 kts | 248° |
| 2026-05-05 03:13 | 48.36390 | 11.79580 | 1482 ft | 22 kts | 234° |
| 2026-05-05 03:13 | 48.36321 | 11.79441 | 1475 ft | 15 kts | 233° |
| 2026-05-05 03:13 | 48.36258 | 11.79319 | 1482 ft | 14 kts | 221° |
| 2026-05-05 03:13 | 48.36169 | 11.79304 | 1479 ft | 13 kts | 173° |
| 2026-05-05 03:14 | 48.36081 | 11.79319 | 1478 ft | 12 kts | 173° |
| 2026-05-05 03:14 | 48.35993 | 11.79335 | 1480 ft | 12 kts | 173° |
| 2026-05-05 03:14 | 48.35912 | 11.79359 | 1479 ft | 11 kts | 149° |
| 2026-05-05 03:14 | 48.35839 | 11.79389 | 1482 ft | 11 kts | 172° |
| 2026-05-05 03:15 | 48.35812 | 11.79473 | 1482 ft | 11 kts | 82° |
| 2026-05-05 03:15 | 48.35822 | 11.79601 | 1479 ft | 14 kts | 84° |
| 2026-05-05 03:15 | 48.35834 | 11.79768 | 1477 ft | 17 kts | 83° |
| 2026-05-05 03:15 | 48.35848 | 11.79941 | 1476 ft | 16 kts | 83° |
| 2026-05-05 03:16 | 48.35861 | 11.80108 | 1482 ft | 16 kts | 83° |
| 2026-05-05 03:16 | 48.35864 | 11.80238 | 1482 ft | 9 kts | 114° |
| 2026-05-05 03:16 | 48.35827 | 11.80297 | 1482 ft | 7 kts | 167° |
| 2026-05-05 03:16 | 48.35783 | 11.80304 | 1482 ft | 4 kts | 173° |
| 2026-05-05 03:17 | 48.35782 | 11.80304 | 1482 ft | 0 kts | 173° |